Silver Shadow — C6FN6 — position and weather

sailwx.info

Track history (hours):
 
Tides and Currents Weather Stations Pressure Air Temp Water Temp Dewpoint Dewpoint Depression Visibility Wind Speed Wind Dir Waves Ship Positions

Silver Shadow

Operator: V Ships Leisure SAM

Last reported at 2018-Aug-14 08:53 UTC. Time now 2018-Aug-14 13:47 UTC.
Position N 58°14' W 136°30'.

Length 186 m; draft 6.1 m.

Type: Ship. MMSI: 308628000.

Date/timePositionNaut miles runAvg speedWind from/ knotsBaromVisibWave heightAir tempDewpointWater temp
2018-Aug-14 08:53N 58°14' W 136°30'714.7
2018-Aug-14 08:26N 58°18' W 136°20'717.3
2018-Aug-14 08:00N 58°19' W 136°06'714.7
2018-Aug-14 07:31N 58°19' W 135°52'918.0
2018-Aug-14 07:00N 58°16' W 135°36'  
2018-Aug-11 12:57N 54°57' W 131°05'613.3
2018-Aug-11 12:29N 54°50' W 131°05'612.6
2018-Aug-11 12:00N 54°44' W 131°08'613.1
2018-Aug-11 11:30N 54°39' W 131°13'712.8
2018-Aug-11 10:59N 54°33' W 131°18'713.7
2018-Aug-11 10:30N 54°26' W 131°16'714.0
2018-Aug-11 10:00N 54°19' W 131°14'815.1
2018-Aug-11 09:30N 54°12' W 131°12'714.7
2018-Aug-11 09:00N 54°05' W 131°11'714.5
2018-Aug-11 08:31N 53°58' W 131°09'714.8
2018-Aug-11 08:00N 53°50' W 131°07'815.0
2018-Aug-11 07:30N 53°43' W 131°05'714.9
2018-Aug-11 07:00N 53°35' W 131°03'815.1
2018-Aug-11 06:30N 53°28' W 131°01'915.0
2018-Aug-11 05:53N 53°20' W 130°54'715.0
2018-Aug-11 05:25N 53°14' W 130°47'714.6
2018-Aug-11 04:56N 53°08' W 130°41'814.7
2018-Aug-11 04:25N 53°02' W 130°34'714.7
2018-Aug-11 03:57N 52°56' W 130°27'614.3
2018-Aug-11 03:30N 52°51' W 130°21'714.4
2018-Aug-11 03:00N 52°45' W 130°15'612.0
2018-Aug-11 02:30N 52°40' W 130°09'816.1
2018-Aug-11 02:00N 52°33' W 130°02'816.4
2018-Aug-11 01:30N 52°26' W 129°55'816.4
2018-Aug-11 01:00N 52°20' W 129°46'816.0
2018-Aug-11 00:30N 52°14' W 129°37'815.4
2018-Aug-11 00:00N 52°08' W 129°29'816.3
2018-Aug-10 23:30N 52°02' W 129°20'816.5
2018-Aug-10 23:00N 51°56' W 129°11'816.1
2018-Aug-10 22:30N 51°50' W 129°02'815.5
2018-Aug-10 22:00N 51°45' W 128°53'815.5
2018-Aug-10 21:30N 51°38' W 128°46'815.4
2018-Aug-10 21:00N 51°32' W 128°39'816.2
2018-Aug-10 20:30N 51°25' W 128°32'816.3
2018-Aug-10 20:00N 51°19' W 128°24'816.4
2018-Aug-10 19:30N 51°12' W 128°17'816.2
2018-Aug-10 19:00N 51°07' W 128°06'816.4
2018-Aug-10 18:31N 51°03' W 127°55'714.1
2018-Aug-10 17:59N 50°59' W 127°46'815.3
2018-Aug-10 17:27N 50°53' W 127°36'716.7
2018-Aug-10 17:00N 50°50' W 127°26'917.2
2018-Aug-10 16:30N 50°46' W 127°13'917.1
2018-Aug-10 16:00N 50°43' W 127°01'917.0
2018-Aug-10 15:30N 50°39' W 126°49'815.8
2018-Aug-10 15:00N 50°33' W 126°41'916.5
2018-Aug-10 14:29N 50°30' W 126°28'1118.0
2018-Aug-10 13:54N 50°29' W 126°12'3017.2
2018-Aug-10 12:10N 50°20' W 125°27'212.7
2018-Aug-10 12:00N 50°19' W 125°25'816.8
2018-Aug-10 11:30N 50°11' W 125°22'713.2
2018-Aug-10 11:00N 50°05' W 125°17'612.0
2018-Aug-10 10:30N 49°60' W 125°12'510.3
2018-Aug-10 09:59N 49°56' W 125°06'510.6
2018-Aug-10 09:30N 49°53' W 124°60'510.7
2018-Aug-10 09:00N 49°50' W 124°53'510.7
2018-Aug-10 08:30N 49°46' W 124°47'510.3
2018-Aug-10 08:00N 49°42' W 124°44'510.4
2018-Aug-10 07:30N 49°38' W 124°38'510.4
2018-Aug-10 07:00N 49°34' W 124°33'610.5
2018-Aug-10 06:24N 49°29' W 124°28'410.0
2018-Aug-10 06:00N 49°27' W 124°22'510.6
2018-Aug-10 05:30N 49°25' W 124°15'510.5
2018-Aug-10 05:00N 49°23' W 124°07'510.4
2018-Aug-10 04:29N 49°21' W 123°59'510.5
2018-Aug-10 04:00N 49°20' W 123°52'510.5
2018-Aug-10 03:30N 49°20' W 123°44'510.3
2018-Aug-10 03:00N 49°20' W 123°36'510.5
2018-Aug-10 02:30N 49°19' W 123°28'510.4
2018-Aug-10 02:00N 49°19' W 123°20'510.4
2018-Aug-10 01:30N 49°19' W 123°12'4 8.0
2018-Aug-10 01:01N 49°18' W 123°07'0 0.4
2018-Aug-10 00:29N 49°17' W 123°07'0 0.0
2018-Aug-09 23:59N 49°17' W 123°07'0 0.0
2018-Aug-09 23:29N 49°17' W 123°07'0 0.0
2018-Aug-09 22:59N 49°17' W 123°07'0 0.0
2018-Aug-09 22:29N 49°17' W 123°07'0 0.0
2018-Aug-09 21:59N 49°17' W 123°07'0 0.0
2018-Aug-09 21:29N 49°17' W 123°07'0 0.0
2018-Aug-09 20:59N 49°17' W 123°07'0 0.0
2018-Aug-09 20:29N 49°17' W 123°07'0 0.0
2018-Aug-09 19:59N 49°17' W 123°07'0 0.0
2018-Aug-09 19:29N 49°17' W 123°07'0 0.0
2018-Aug-09 18:59N 49°17' W 123°07'0 0.0
2018-Aug-09 18:29N 49°17' W 123°07'0 0.1
2018-Aug-09 17:59N 49°17' W 123°07'0 0.1
2018-Aug-09 17:29N 49°17' W 123°07'0 0.0
2018-Aug-09 16:55N 49°17' W 123°07'0 0.0
2018-Aug-09 16:24N 49°17' W 123°07'0 0.0
2018-Aug-09 15:57N 49°17' W 123°07'0 0.0
2018-Aug-09 15:30N 49°17' W 123°07'0 0.0
2018-Aug-09 15:00N 49°17' W 123°07'0 0.0
2018-Aug-09 14:24N 49°17' W 123°07'0 0.1
2018-Aug-09 14:00N 49°17' W 123°06'2 3.7
2018-Aug-09 13:30N 49°19' W 123°08'713.2
2018-Aug-09 13:00N 49°18' W 123°18'714.2
2018-Aug-09 12:30N 49°19' W 123°29'714.2
2018-Aug-09 12:00N 49°19' W 123°40'714.3
2018-Aug-09 11:30N 49°20' W 123°51'714.3
2018-Aug-09 11:00N 49°22' W 124°02'1214.0
2018-Aug-09 10:07N 49°26' W 124°20'213.4
2018-Aug-09 10:00N 49°27' W 124°22'613.2
2018-Aug-09 09:30N 49°31' W 124°30'714.0
2018-Aug-09 09:00N 49°36' W 124°36'714.2
2018-Aug-09 08:30N 49°41' W 124°43'714.0
2018-Aug-09 08:00N 49°48' W 124°49'714.2
2018-Aug-09 07:30N 49°52' W 124°57'714.0
2018-Aug-09 07:00N 49°56' W 125°06'713.5
2018-Aug-09 06:30N 50°01' W 125°13'713.1
2018-Aug-09 06:00N 50°07' W 125°19'611.6
2018-Aug-09 05:30N 50°12' W 125°22'3 6.7
2018-Aug-09 05:00N 50°15' W 125°23'4 8.6
2018-Aug-09 04:30N 50°19' W 125°26'814.7
2018-Aug-09 03:56N 50°22' W 125°38'1416.2
2018-Aug-09 03:05N 50°25' W 125°59'115.7
2018-Aug-09 03:00N 50°26' W 126°01'917.1
2018-Aug-09 02:30N 50°29' W 126°14'917.6
2018-Aug-09 01:59N 50°30' W 126°28'817.1
2018-Aug-09 01:30N 50°32' W 126°40'3 5.0
2018-Aug-09 01:00N 50°34' W 126°42'815.4
2018-Aug-09 00:30N 50°40' W 126°51'816.7
2018-Aug-09 00:00N 50°43' W 127°02'916.5
2018-Aug-08 23:29N 50°46' W 127°15'816.5
2018-Aug-08 23:00N 50°50' W 127°27'816.3
2018-Aug-08 22:30N 50°54' W 127°38'816.1
2018-Aug-08 22:00N 50°58' W 127°48'612.9
2018-Aug-08 21:31N 51°02' W 127°56'612.7
2018-Aug-08 21:00N 51°06' W 128°04'612.6
2018-Aug-08 20:31N 51°09' W 128°13'612.5
2018-Aug-08 20:00N 51°14' W 128°20'612.8
2018-Aug-08 19:30N 51°19' W 128°25'612.9
2018-Aug-08 19:00N 51°25' W 128°31'612.8
2018-Aug-08 18:30N 51°30' W 128°37'612.6
2018-Aug-08 18:01N 51°35' W 128°41'713.0
2018-Aug-08 17:30N 51°41' W 128°47'714.6
2018-Aug-08 17:00N 51°47' W 128°53'816.4
2018-Aug-08 16:31N 51°52' W 129°04'713.2
2018-Aug-08 16:00N 51°57' W 129°11'713.0
2018-Aug-08 15:30N 52°02' W 129°19'713.3
2018-Aug-08 15:00N 52°06' W 129°26'713.8
2018-Aug-08 14:31N 52°12' W 129°33'815.3
2018-Aug-08 14:00N 52°17' W 129°42'815.2
2018-Aug-08 13:30N 52°23' W 129°50'714.8
2018-Aug-08 13:00N 52°29' W 129°57'815.1
2018-Aug-08 12:30N 52°35' W 130°04'815.4
2018-Aug-08 12:00N 52°41' W 130°11'815.6
2018-Aug-08 11:30N 52°48' W 130°18'815.6
2018-Aug-08 11:00N 52°54' W 130°26'815.6
2018-Aug-08 10:30N 53°01' W 130°33'816.1
2018-Aug-08 10:01N 53°08' W 130°40'815.5
2018-Aug-08 09:30N 53°14' W 130°48'714.8
2018-Aug-08 09:00N 53°20' W 130°54'714.6
2018-Aug-08 08:30N 53°27' W 131°00'815.5
2018-Aug-08 08:00N 53°34' W 131°02'815.5
2018-Aug-08 07:30N 53°42' W 131°04'815.4
2018-Aug-08 07:01N 53°49' W 131°06'815.3
2018-Aug-08 06:30N 53°57' W 131°08'815.1
2018-Aug-08 06:00N 54°05' W 131°10'815.1
2018-Aug-08 05:30N 54°12' W 131°12'815.6
2018-Aug-08 05:01N 54°20' W 131°15'815.5
2018-Aug-08 04:30N 54°27' W 131°17'814.8
2018-Aug-08 04:00N 54°35' W 131°17'914.6
2018-Aug-08 03:24N 54°42' W 131°10'614.6
2018-Aug-08 03:00N 54°48' W 131°05'714.7
2018-Aug-08 02:30N 54°55' W 131°06'1514.7
2018-Aug-08 01:29N 55°10' W 131°11'252 6.0
2018-Aug-06 07:05N 58°18' W 136°17'218.2
2018-Aug-06 06:58N 58°19' W 136°13'919.1
2018-Aug-06 06:30N 58°19' W 135°56'1019.2
2018-Aug-06 06:00N 58°17' W 135°39'1019.5
2018-Aug-06 05:30N 58°13' W 135°22'1 0.0
2018-Aug-04 11:07N 58°13' W 135°21'216.1
2018-Aug-04 11:00N 58°13' W 135°24'815.6
2018-Aug-04 10:30N 58°16' W 135°38'918.3
2018-Aug-04 10:01N 58°19' W 135°54'918.2
2018-Aug-04 09:31N 58°19' W 136°12'  
Track history (hours):
 
Tides and Currents Weather Stations Pressure Air Temp Water Temp Dewpoint Dewpoint Depression Visibility Wind Speed Wind Dir Waves Ship Positions

Silver Shadow

Operator: V Ships Leisure SAM

Last reported at 2018-Aug-14 08:53 UTC. Time now 2018-Aug-14 13:47 UTC.
Position N 58°14' W 136°30'.

Length 186 m; draft 6.1 m.

Type: Ship. MMSI: 308628000.

Date/timePositionNaut miles runAvg speedWind from/ knotsBaromVisibWave heightAir tempDewpointWater temp
2018-Aug-14 08:53N 58°14' W 136°30'714.7
2018-Aug-14 08:26N 58°18' W 136°20'717.3
2018-Aug-14 08:00N 58°19' W 136°06'714.7
2018-Aug-14 07:31N 58°19' W 135°52'918.0
2018-Aug-14 07:00N 58°16' W 135°36'  
2018-Aug-11 12:57N 54°57' W 131°05'613.3
2018-Aug-11 12:29N 54°50' W 131°05'612.6
2018-Aug-11 12:00N 54°44' W 131°08'613.1
2018-Aug-11 11:30N 54°39' W 131°13'712.8
2018-Aug-11 10:59N 54°33' W 131°18'713.7
2018-Aug-11 10:30N 54°26' W 131°16'714.0
2018-Aug-11 10:00N 54°19' W 131°14'815.1
2018-Aug-11 09:30N 54°12' W 131°12'714.7
2018-Aug-11 09:00N 54°05' W 131°11'714.5
2018-Aug-11 08:31N 53°58' W 131°09'714.8
2018-Aug-11 08:00N 53°50' W 131°07'815.0
2018-Aug-11 07:30N 53°43' W 131°05'714.9
2018-Aug-11 07:00N 53°35' W 131°03'815.1
2018-Aug-11 06:30N 53°28' W 131°01'915.0
2018-Aug-11 05:53N 53°20' W 130°54'715.0
2018-Aug-11 05:25N 53°14' W 130°47'714.6
2018-Aug-11 04:56N 53°08' W 130°41'814.7
2018-Aug-11 04:25N 53°02' W 130°34'714.7
2018-Aug-11 03:57N 52°56' W 130°27'614.3
2018-Aug-11 03:30N 52°51' W 130°21'714.4
2018-Aug-11 03:00N 52°45' W 130°15'612.0
2018-Aug-11 02:30N 52°40' W 130°09'816.1
2018-Aug-11 02:00N 52°33' W 130°02'816.4
2018-Aug-11 01:30N 52°26' W 129°55'816.4
2018-Aug-11 01:00N 52°20' W 129°46'816.0
2018-Aug-11 00:30N 52°14' W 129°37'815.4
2018-Aug-11 00:00N 52°08' W 129°29'816.3
2018-Aug-10 23:30N 52°02' W 129°20'816.5
2018-Aug-10 23:00N 51°56' W 129°11'816.1
2018-Aug-10 22:30N 51°50' W 129°02'815.5
2018-Aug-10 22:00N 51°45' W 128°53'815.5
2018-Aug-10 21:30N 51°38' W 128°46'815.4
2018-Aug-10 21:00N 51°32' W 128°39'816.2
2018-Aug-10 20:30N 51°25' W 128°32'816.3
2018-Aug-10 20:00N 51°19' W 128°24'816.4
2018-Aug-10 19:30N 51°12' W 128°17'816.2
2018-Aug-10 19:00N 51°07' W 128°06'816.4
2018-Aug-10 18:31N 51°03' W 127°55'714.1
2018-Aug-10 17:59N 50°59' W 127°46'815.3
2018-Aug-10 17:27N 50°53' W 127°36'716.7
2018-Aug-10 17:00N 50°50' W 127°26'917.2
2018-Aug-10 16:30N 50°46' W 127°13'917.1
2018-Aug-10 16:00N 50°43' W 127°01'917.0
2018-Aug-10 15:30N 50°39' W 126°49'815.8
2018-Aug-10 15:00N 50°33' W 126°41'916.5
2018-Aug-10 14:29N 50°30' W 126°28'1118.0
2018-Aug-10 13:54N 50°29' W 126°12'3017.2
2018-Aug-10 12:10N 50°20' W 125°27'212.7
2018-Aug-10 12:00N 50°19' W 125°25'816.8
2018-Aug-10 11:30N 50°11' W 125°22'713.2
2018-Aug-10 11:00N 50°05' W 125°17'612.0
2018-Aug-10 10:30N 49°60' W 125°12'510.3
2018-Aug-10 09:59N 49°56' W 125°06'510.6
2018-Aug-10 09:30N 49°53' W 124°60'510.7
2018-Aug-10 09:00N 49°50' W 124°53'510.7
2018-Aug-10 08:30N 49°46' W 124°47'510.3
2018-Aug-10 08:00N 49°42' W 124°44'510.4
2018-Aug-10 07:30N 49°38' W 124°38'510.4
2018-Aug-10 07:00N 49°34' W 124°33'610.5
2018-Aug-10 06:24N 49°29' W 124°28'410.0
2018-Aug-10 06:00N 49°27' W 124°22'510.6
2018-Aug-10 05:30N 49°25' W 124°15'510.5
2018-Aug-10 05:00N 49°23' W 124°07'510.4
2018-Aug-10 04:29N 49°21' W 123°59'510.5
2018-Aug-10 04:00N 49°20' W 123°52'510.5
2018-Aug-10 03:30N 49°20' W 123°44'510.3
2018-Aug-10 03:00N 49°20' W 123°36'510.5
2018-Aug-10 02:30N 49°19' W 123°28'510.4
2018-Aug-10 02:00N 49°19' W 123°20'510.4
2018-Aug-10 01:30N 49°19' W 123°12'4 8.0
2018-Aug-10 01:01N 49°18' W 123°07'0 0.4
2018-Aug-10 00:29N 49°17' W 123°07'0 0.0
2018-Aug-09 23:59N 49°17' W 123°07'0 0.0
2018-Aug-09 23:29N 49°17' W 123°07'0 0.0
2018-Aug-09 22:59N 49°17' W 123°07'0 0.0
2018-Aug-09 22:29N 49°17' W 123°07'0 0.0
2018-Aug-09 21:59N 49°17' W 123°07'0 0.0
2018-Aug-09 21:29N 49°17' W 123°07'0 0.0
2018-Aug-09 20:59N 49°17' W 123°07'0 0.0
2018-Aug-09 20:29N 49°17' W 123°07'0 0.0
2018-Aug-09 19:59N 49°17' W 123°07'0 0.0
2018-Aug-09 19:29N 49°17' W 123°07'0 0.0
2018-Aug-09 18:59N 49°17' W 123°07'0 0.0
2018-Aug-09 18:29N 49°17' W 123°07'0 0.1
2018-Aug-09 17:59N 49°17' W 123°07'0 0.1
2018-Aug-09 17:29N 49°17' W 123°07'0 0.0
2018-Aug-09 16:55N 49°17' W 123°07'0 0.0
2018-Aug-09 16:24N 49°17' W 123°07'0 0.0
2018-Aug-09 15:57N 49°17' W 123°07'0 0.0
2018-Aug-09 15:30N 49°17' W 123°07'0 0.0
2018-Aug-09 15:00N 49°17' W 123°07'0 0.0
2018-Aug-09 14:24N 49°17' W 123°07'0 0.1
2018-Aug-09 14:00N 49°17' W 123°06'2 3.7
2018-Aug-09 13:30N 49°19' W 123°08'713.2
2018-Aug-09 13:00N 49°18' W 123°18'714.2
2018-Aug-09 12:30N 49°19' W 123°29'714.2
2018-Aug-09 12:00N 49°19' W 123°40'714.3
2018-Aug-09 11:30N 49°20' W 123°51'714.3
2018-Aug-09 11:00N 49°22' W 124°02'1214.0
2018-Aug-09 10:07N 49°26' W 124°20'213.4
2018-Aug-09 10:00N 49°27' W 124°22'613.2
2018-Aug-09 09:30N 49°31' W 124°30'714.0
2018-Aug-09 09:00N 49°36' W 124°36'714.2
2018-Aug-09 08:30N 49°41' W 124°43'714.0
2018-Aug-09 08:00N 49°48' W 124°49'714.2
2018-Aug-09 07:30N 49°52' W 124°57'714.0
2018-Aug-09 07:00N 49°56' W 125°06'713.5
2018-Aug-09 06:30N 50°01' W 125°13'713.1
2018-Aug-09 06:00N 50°07' W 125°19'611.6
2018-Aug-09 05:30N 50°12' W 125°22'3 6.7
2018-Aug-09 05:00N 50°15' W 125°23'4 8.6
2018-Aug-09 04:30N 50°19' W 125°26'814.7
2018-Aug-09 03:56N 50°22' W 125°38'1416.2
2018-Aug-09 03:05N 50°25' W 125°59'115.7
2018-Aug-09 03:00N 50°26' W 126°01'917.1
2018-Aug-09 02:30N 50°29' W 126°14'917.6
2018-Aug-09 01:59N 50°30' W 126°28'817.1
2018-Aug-09 01:30N 50°32' W 126°40'3 5.0
2018-Aug-09 01:00N 50°34' W 126°42'815.4
2018-Aug-09 00:30N 50°40' W 126°51'816.7
2018-Aug-09 00:00N 50°43' W 127°02'916.5
2018-Aug-08 23:29N 50°46' W 127°15'816.5
2018-Aug-08 23:00N 50°50' W 127°27'816.3
2018-Aug-08 22:30N 50°54' W 127°38'816.1
2018-Aug-08 22:00N 50°58' W 127°48'612.9
2018-Aug-08 21:31N 51°02' W 127°56'612.7
2018-Aug-08 21:00N 51°06' W 128°04'612.6
2018-Aug-08 20:31N 51°09' W 128°13'612.5
2018-Aug-08 20:00N 51°14' W 128°20'612.8
2018-Aug-08 19:30N 51°19' W 128°25'612.9
2018-Aug-08 19:00N 51°25' W 128°31'612.8
2018-Aug-08 18:30N 51°30' W 128°37'612.6
2018-Aug-08 18:01N 51°35' W 128°41'713.0
2018-Aug-08 17:30N 51°41' W 128°47'714.6
2018-Aug-08 17:00N 51°47' W 128°53'816.4
2018-Aug-08 16:31N 51°52' W 129°04'713.2
2018-Aug-08 16:00N 51°57' W 129°11'713.0
2018-Aug-08 15:30N 52°02' W 129°19'713.3
2018-Aug-08 15:00N 52°06' W 129°26'713.8
2018-Aug-08 14:31N 52°12' W 129°33'815.3
2018-Aug-08 14:00N 52°17' W 129°42'815.2
2018-Aug-08 13:30N 52°23' W 129°50'714.8
2018-Aug-08 13:00N 52°29' W 129°57'815.1
2018-Aug-08 12:30N 52°35' W 130°04'815.4
2018-Aug-08 12:00N 52°41' W 130°11'815.6
2018-Aug-08 11:30N 52°48' W 130°18'815.6
2018-Aug-08 11:00N 52°54' W 130°26'815.6
2018-Aug-08 10:30N 53°01' W 130°33'816.1
2018-Aug-08 10:01N 53°08' W 130°40'815.5
2018-Aug-08 09:30N 53°14' W 130°48'714.8
2018-Aug-08 09:00N 53°20' W 130°54'714.6
2018-Aug-08 08:30N 53°27' W 131°00'815.5
2018-Aug-08 08:00N 53°34' W 131°02'815.5
2018-Aug-08 07:30N 53°42' W 131°04'815.4
2018-Aug-08 07:01N 53°49' W 131°06'815.3
2018-Aug-08 06:30N 53°57' W 131°08'815.1
2018-Aug-08 06:00N 54°05' W 131°10'815.1
2018-Aug-08 05:30N 54°12' W 131°12'815.6
2018-Aug-08 05:01N 54°20' W 131°15'815.5
2018-Aug-08 04:30N 54°27' W 131°17'814.8
2018-Aug-08 04:00N 54°35' W 131°17'914.6
2018-Aug-08 03:24N 54°42' W 131°10'614.6
2018-Aug-08 03:00N 54°48' W 131°05'714.7
2018-Aug-08 02:30N 54°55' W 131°06'1514.7
2018-Aug-08 01:29N 55°10' W 131°11'252 6.0
2018-Aug-06 07:05N 58°18' W 136°17'218.2
2018-Aug-06 06:58N 58°19' W 136°13'919.1
2018-Aug-06 06:30N 58°19' W 135°56'1019.2
2018-Aug-06 06:00N 58°17' W 135°39'1019.5
2018-Aug-06 05:30N 58°13' W 135°22'1 0.0
2018-Aug-04 11:07N 58°13' W 135°21'216.1
2018-Aug-04 11:00N 58°13' W 135°24'815.6
2018-Aug-04 10:30N 58°16' W 135°38'918.3
2018-Aug-04 10:01N 58°19' W 135°54'918.2
2018-Aug-04 09:31N 58°19' W 136°12'  

Dump ship's entire track history